Lisca Bianca M — IBED — position and weather

sailwx.info

Track history (hours):
 
Tides and Currents Weather Stations Pressure Air Temp Water Temp Dewpoint Dewpoint Depression Visibility Wind Speed Wind Dir Waves Ship Positions

Lisca Bianca M

Last reported at 2018-Jun-17 23:55 UTC. Time now 2018-Jun-18 19:25 UTC.
Position N 35°57' W 005°58'.

Length 183 m; draft 10 m.

Type: Ship (hazmat cat A). MMSI: 247149200.

Date/timePositionNaut miles runAvg speedWind from/ knotsBaromVisibWave heightAir tempDewpointWater temp
2018-Jun-17 23:55N 35°57' W 005°58'1312.3
2018-Jun-17 22:49N 35°57' W 005°42'510.3
2018-Jun-17 22:18N 35°58' W 005°35'3 9.8
2018-Jun-17 21:58N 35°59' W 005°31'4 9.5
2018-Jun-17 21:30N 36°00' W 005°26'5 9.9
2018-Jun-17 21:00N 36°05' W 005°24'510.0
2018-Jun-17 20:30N 36°10' W 005°24'1 0.0
2018-Jun-16 03:00N 36°10' W 005°24'0 0.0
2018-Jun-15 23:54N 36°10' W 005°24'0 0.0
2018-Jun-15 22:42N 36°10' W 005°24'0 0.0
2018-Jun-15 02:48N 36°10' W 005°24'  
2018-Jun-12 08:42N 36°08' W 005°24'1 5.3
2018-Jun-12 08:30N 36°07' W 005°24'4 7.9
2018-Jun-12 08:00N 36°04' W 005°21'1 2.6
2018-Jun-12 07:30N 36°03' W 005°20'0 0.6
2018-Jun-12 07:00N 36°03' W 005°20'2 3.1
2018-Jun-12 06:30N 36°03' W 005°22'1 2.5
2018-Jun-12 06:00N 36°04' W 005°23'1 2.2
2018-Jun-12 05:28N 36°03' W 005°22'3 7.2
2018-Jun-12 05:00N 35°60' W 005°23'815.9
2018-Jun-12 04:30N 35°57' W 005°32'915.9
2018-Jun-12 03:57N 35°55' W 005°43'716.2
2018-Jun-12 03:30N 35°55' W 005°52'815.3
2018-Jun-12 03:00N 35°53' W 006°01'62512.6
2018-Jun-10 01:18N 28°56' W 015°13'311.8
2018-Jun-10 01:00N 28°54' W 015°16'612.1
2018-Jun-10 00:30N 28°49' W 015°20'612.2
2018-Jun-10 00:00N 28°45' W 015°26'612.3
2018-Jun-09 23:30N 28°41' W 015°31'612.6
2018-Jun-09 23:00N 28°37' W 015°36'612.6
2018-Jun-09 22:30N 28°33' W 015°41'612.7
2018-Jun-09 22:00N 28°28' W 015°46'611.8
2018-Jun-09 21:30N 28°24' W 015°51'712.9
2018-Jun-09 20:58N 28°26' W 015°59'613.2
2018-Jun-09 20:30N 28°28' W 016°06'3 5.7
2018-Jun-09 19:54N 28°30' W 016°09'1 1.2
2018-Jun-09 19:21N 28°30' W 016°09'0 0.0
2018-Jun-09 18:54N 28°30' W 016°09'0 0.0
2018-Jun-09 18:09N 28°30' W 016°09'0 0.2
2018-Jun-09 17:54N 28°30' W 016°09'0 0.0
2018-Jun-09 17:21N 28°30' W 016°09'0 0.0
2018-Jun-09 16:24N 28°30' W 016°09'0 0.0
2018-Jun-09 15:57N 28°30' W 016°09'0 0.0
2018-Jun-09 15:30N 28°30' W 016°09'0 0.0
2018-Jun-09 13:45N 28°30' W 016°09'0 0.0
2018-Jun-09 13:15N 28°30' W 016°09'0 0.0
2018-Jun-09 12:45N 28°30' W 016°09'0 0.1
2018-Jun-09 12:30N 28°30' W 016°09'0 0.2
2018-Jun-09 12:00N 28°30' W 016°09'0 0.1
2018-Jun-09 11:30N 28°30' W 016°09'0 0.1
2018-Jun-09 11:00N 28°30' W 016°09'0 0.0
2018-Jun-09 10:30N 28°30' W 016°09'0 0.1
2018-Jun-09 09:48N 28°31' W 016°09'0 0.2
2018-Jun-09 09:30N 28°30' W 016°09'0 0.1
2018-Jun-09 08:45N 28°31' W 016°09'0 0.1
2018-Jun-09 08:06N 28°30' W 016°09'0 0.1
2018-Jun-09 07:51N 28°30' W 016°09'0 0.1
2018-Jun-09 07:21N 28°30' W 016°09'0 0.1
2018-Jun-09 06:54N 28°30' W 016°09'0 0.0
2018-Jun-09 06:24N 28°30' W 016°09'0 0.1
2018-Jun-09 05:54N 28°30' W 016°09'0 0.1
2018-Jun-09 05:21N 28°30' W 016°09'0 0.1
2018-Jun-09 04:54N 28°30' W 016°09'0 0.1
2018-Jun-09 04:24N 28°30' W 016°09'0 0.0
2018-Jun-09 03:57N 28°30' W 016°09'0 0.1
2018-Jun-09 03:12N 28°31' W 016°09'0 0.2
2018-Jun-09 02:57N 28°31' W 016°09'0 0.1
2018-Jun-09 02:27N 28°31' W 016°09'0 0.1
2018-Jun-09 00:42N 28°30' W 016°09'0 0.0
2018-Jun-09 00:30N 28°30' W 016°09'0 0.0
2018-Jun-08 23:57N 28°30' W 016°09'0 0.0
2018-Jun-08 21:57N 28°30' W 016°09'0 0.0
2018-Jun-08 21:18N 28°30' W 016°09'0 0.1
2018-Jun-08 20:48N 28°30' W 016°09'0 0.0
2018-Jun-08 20:30N 28°30' W 016°09'0 0.1
2018-Jun-08 20:00N 28°31' W 016°09'0 0.0
2018-Jun-08 19:30N 28°31' W 016°09'0 0.0
2018-Jun-08 18:21N 28°31' W 016°09'0 0.0
2018-Jun-08 17:48N 28°31' W 016°09'0 0.1
2018-Jun-08 17:21N 28°31' W 016°09'0 0.1
2018-Jun-08 16:51N 28°31' W 016°09'0 0.1
2018-Jun-08 16:21N 28°31' W 016°09'0 0.1
2018-Jun-08 15:54N 28°31' W 016°09'0 0.0
2018-Jun-08 14:24N 28°31' W 016°09'0 0.1
2018-Jun-08 13:57N 28°31' W 016°09'0 0.2
2018-Jun-08 13:27N 28°31' W 016°09'0 0.1
2018-Jun-08 11:24N 28°30' W 016°09'0 0.1
2018-Jun-08 11:00N 28°30' W 016°09'0 0.0
2018-Jun-08 09:42N 28°30' W 016°09'0 0.1
2018-Jun-08 09:30N 28°30' W 016°09'0 0.1
2018-Jun-08 09:00N 28°30' W 016°09'0 0.0
2018-Jun-08 08:18N 28°30' W 016°09'0 0.1
2018-Jun-08 07:57N 28°30' W 016°09'0 0.1
2018-Jun-08 07:30N 28°30' W 016°09'0 0.0
2018-Jun-08 07:00N 28°30' W 016°09'0 0.1
2018-Jun-08 06:30N 28°30' W 016°09'0 0.2
2018-Jun-08 06:00N 28°30' W 016°09'0 0.1
2018-Jun-08 05:30N 28°31' W 016°09'0 0.1
2018-Jun-08 04:48N 28°30' W 016°09'0 0.1
2018-Jun-08 04:21N 28°30' W 016°09'0 0.1
2018-Jun-08 03:51N 28°30' W 016°09'0 0.0
2018-Jun-08 03:24N 28°30' W 016°09'0 0.1
2018-Jun-08 02:54N 28°30' W 016°09'0 0.1
2018-Jun-08 02:24N 28°30' W 016°09'0 0.2
2018-Jun-08 01:58N 28°30' W 016°09'0 0.1
2018-Jun-08 01:28N 28°30' W 016°09'0 0.2
2018-Jun-08 00:55N 28°30' W 016°09'0 0.2
2018-Jun-08 00:28N 28°31' W 016°09'0 0.2
2018-Jun-07 23:58N 28°30' W 016°09'  
Track history (hours):
 
Tides and Currents Weather Stations Pressure Air Temp Water Temp Dewpoint Dewpoint Depression Visibility Wind Speed Wind Dir Waves Ship Positions

Lisca Bianca M

Last reported at 2018-Jun-17 23:55 UTC. Time now 2018-Jun-18 19:25 UTC.
Position N 35°57' W 005°58'.

Length 183 m; draft 10 m.

Type: Ship (hazmat cat A). MMSI: 247149200.

Date/timePositionNaut miles runAvg speedWind from/ knotsBaromVisibWave heightAir tempDewpointWater temp
2018-Jun-17 23:55N 35°57' W 005°58'1312.3
2018-Jun-17 22:49N 35°57' W 005°42'510.3
2018-Jun-17 22:18N 35°58' W 005°35'3 9.8
2018-Jun-17 21:58N 35°59' W 005°31'4 9.5
2018-Jun-17 21:30N 36°00' W 005°26'5 9.9
2018-Jun-17 21:00N 36°05' W 005°24'510.0
2018-Jun-17 20:30N 36°10' W 005°24'1 0.0
2018-Jun-16 03:00N 36°10' W 005°24'0 0.0
2018-Jun-15 23:54N 36°10' W 005°24'0 0.0
2018-Jun-15 22:42N 36°10' W 005°24'0 0.0
2018-Jun-15 02:48N 36°10' W 005°24'  
2018-Jun-12 08:42N 36°08' W 005°24'1 5.3
2018-Jun-12 08:30N 36°07' W 005°24'4 7.9
2018-Jun-12 08:00N 36°04' W 005°21'1 2.6
2018-Jun-12 07:30N 36°03' W 005°20'0 0.6
2018-Jun-12 07:00N 36°03' W 005°20'2 3.1
2018-Jun-12 06:30N 36°03' W 005°22'1 2.5
2018-Jun-12 06:00N 36°04' W 005°23'1 2.2
2018-Jun-12 05:28N 36°03' W 005°22'3 7.2
2018-Jun-12 05:00N 35°60' W 005°23'815.9
2018-Jun-12 04:30N 35°57' W 005°32'915.9
2018-Jun-12 03:57N 35°55' W 005°43'716.2
2018-Jun-12 03:30N 35°55' W 005°52'815.3
2018-Jun-12 03:00N 35°53' W 006°01'62512.6
2018-Jun-10 01:18N 28°56' W 015°13'311.8
2018-Jun-10 01:00N 28°54' W 015°16'612.1
2018-Jun-10 00:30N 28°49' W 015°20'612.2
2018-Jun-10 00:00N 28°45' W 015°26'612.3
2018-Jun-09 23:30N 28°41' W 015°31'612.6
2018-Jun-09 23:00N 28°37' W 015°36'612.6
2018-Jun-09 22:30N 28°33' W 015°41'612.7
2018-Jun-09 22:00N 28°28' W 015°46'611.8
2018-Jun-09 21:30N 28°24' W 015°51'712.9
2018-Jun-09 20:58N 28°26' W 015°59'613.2
2018-Jun-09 20:30N 28°28' W 016°06'3 5.7
2018-Jun-09 19:54N 28°30' W 016°09'1 1.2
2018-Jun-09 19:21N 28°30' W 016°09'0 0.0
2018-Jun-09 18:54N 28°30' W 016°09'0 0.0
2018-Jun-09 18:09N 28°30' W 016°09'0 0.2
2018-Jun-09 17:54N 28°30' W 016°09'0 0.0
2018-Jun-09 17:21N 28°30' W 016°09'0 0.0
2018-Jun-09 16:24N 28°30' W 016°09'0 0.0
2018-Jun-09 15:57N 28°30' W 016°09'0 0.0
2018-Jun-09 15:30N 28°30' W 016°09'0 0.0
2018-Jun-09 13:45N 28°30' W 016°09'0 0.0
2018-Jun-09 13:15N 28°30' W 016°09'0 0.0
2018-Jun-09 12:45N 28°30' W 016°09'0 0.1
2018-Jun-09 12:30N 28°30' W 016°09'0 0.2
2018-Jun-09 12:00N 28°30' W 016°09'0 0.1
2018-Jun-09 11:30N 28°30' W 016°09'0 0.1
2018-Jun-09 11:00N 28°30' W 016°09'0 0.0
2018-Jun-09 10:30N 28°30' W 016°09'0 0.1
2018-Jun-09 09:48N 28°31' W 016°09'0 0.2
2018-Jun-09 09:30N 28°30' W 016°09'0 0.1
2018-Jun-09 08:45N 28°31' W 016°09'0 0.1
2018-Jun-09 08:06N 28°30' W 016°09'0 0.1
2018-Jun-09 07:51N 28°30' W 016°09'0 0.1
2018-Jun-09 07:21N 28°30' W 016°09'0 0.1
2018-Jun-09 06:54N 28°30' W 016°09'0 0.0
2018-Jun-09 06:24N 28°30' W 016°09'0 0.1
2018-Jun-09 05:54N 28°30' W 016°09'0 0.1
2018-Jun-09 05:21N 28°30' W 016°09'0 0.1
2018-Jun-09 04:54N 28°30' W 016°09'0 0.1
2018-Jun-09 04:24N 28°30' W 016°09'0 0.0
2018-Jun-09 03:57N 28°30' W 016°09'0 0.1
2018-Jun-09 03:12N 28°31' W 016°09'0 0.2
2018-Jun-09 02:57N 28°31' W 016°09'0 0.1
2018-Jun-09 02:27N 28°31' W 016°09'0 0.1
2018-Jun-09 00:42N 28°30' W 016°09'0 0.0
2018-Jun-09 00:30N 28°30' W 016°09'0 0.0
2018-Jun-08 23:57N 28°30' W 016°09'0 0.0
2018-Jun-08 21:57N 28°30' W 016°09'0 0.0
2018-Jun-08 21:18N 28°30' W 016°09'0 0.1
2018-Jun-08 20:48N 28°30' W 016°09'0 0.0
2018-Jun-08 20:30N 28°30' W 016°09'0 0.1
2018-Jun-08 20:00N 28°31' W 016°09'0 0.0
2018-Jun-08 19:30N 28°31' W 016°09'0 0.0
2018-Jun-08 18:21N 28°31' W 016°09'0 0.0
2018-Jun-08 17:48N 28°31' W 016°09'0 0.1
2018-Jun-08 17:21N 28°31' W 016°09'0 0.1
2018-Jun-08 16:51N 28°31' W 016°09'0 0.1
2018-Jun-08 16:21N 28°31' W 016°09'0 0.1
2018-Jun-08 15:54N 28°31' W 016°09'0 0.0
2018-Jun-08 14:24N 28°31' W 016°09'0 0.1
2018-Jun-08 13:57N 28°31' W 016°09'0 0.2
2018-Jun-08 13:27N 28°31' W 016°09'0 0.1
2018-Jun-08 11:24N 28°30' W 016°09'0 0.1
2018-Jun-08 11:00N 28°30' W 016°09'0 0.0
2018-Jun-08 09:42N 28°30' W 016°09'0 0.1
2018-Jun-08 09:30N 28°30' W 016°09'0 0.1
2018-Jun-08 09:00N 28°30' W 016°09'0 0.0
2018-Jun-08 08:18N 28°30' W 016°09'0 0.1
2018-Jun-08 07:57N 28°30' W 016°09'0 0.1
2018-Jun-08 07:30N 28°30' W 016°09'0 0.0
2018-Jun-08 07:00N 28°30' W 016°09'0 0.1
2018-Jun-08 06:30N 28°30' W 016°09'0 0.2
2018-Jun-08 06:00N 28°30' W 016°09'0 0.1
2018-Jun-08 05:30N 28°31' W 016°09'0 0.1
2018-Jun-08 04:48N 28°30' W 016°09'0 0.1
2018-Jun-08 04:21N 28°30' W 016°09'0 0.1
2018-Jun-08 03:51N 28°30' W 016°09'0 0.0
2018-Jun-08 03:24N 28°30' W 016°09'0 0.1
2018-Jun-08 02:54N 28°30' W 016°09'0 0.1
2018-Jun-08 02:24N 28°30' W 016°09'0 0.2
2018-Jun-08 01:58N 28°30' W 016°09'0 0.1
2018-Jun-08 01:28N 28°30' W 016°09'0 0.2
2018-Jun-08 00:55N 28°30' W 016°09'0 0.2
2018-Jun-08 00:28N 28°31' W 016°09'0 0.2
2018-Jun-07 23:58N 28°30' W 016°09'  

Dump ship's entire track history